Terminal Aerodrome Forecast
Issued by NWS Spokane, WA

Home | Current Version | Previous Version | Text Only | Print | Product List | Glossary On
Versions: 1 2 3 4 5 6 7 8 9 10 11 12 13 14 15 16 17 18 19 20 21 22 23 24 25 26 27 28 29 30 31 32 33 34 35 36
000
FTUS46 KOTX 300520
TAFLWS
TAF
KLWS 300520Z 3006/3106 16003KT P6SM OVC013
     FM301000 VRB03KT 6SM BR OVC009
     FM301600 VRB02KT 5SM BR OVC007
     FM302200 30003KT P6SM BKN012=

USA.gov is the U.S. government's official web portal to all federal, state and local government web resources and services.